Time;durP1;ratioP1;P1;durP2;ratioP2;P2;SDS_P1;SDS_P2;PMS_P1;PMS_P2;Temp;Humidity;BMP_temperature;BMP_pressure;BME280_temperature;BME280_humidity;BME280_pressure;Samples;Min_cycle;Max_cycle;Signal;HPM_P1;HPM_P2
2023/06/14 00:00:59;;;;;;;7.13;5.03;;;19.10;56.70;;;;;;2099524;28;20016;-70
2023/06/14 00:02:00;;;;;;;8.57;4.85;;;19.10;57.00;;;;;;2097196;28;20173;-70
2023/06/14 00:03:03;;;;;;;6.25;5.13;;;19.10;57.00;;;;;;2098550;28;20032;-70
2023/06/14 00:04:08;;;;;;;4.90;4.40;;;19.10;57.00;;;;;;2100120;28;20031;-70
2023/06/14 00:05:09;;;;;;;4.90;4.32;;;19.10;56.80;;;;;;2097102;28;20356;-70
2023/06/14 00:06:10;;;;;;;6.82;4.68;;;19.10;56.90;;;;;;2096688;28;20024;-70
2023/06/14 00:07:13;;;;;;;6.82;4.70;;;19.10;56.90;;;;;;2100477;28;20361;-70
2023/06/14 00:08:14;;;;;;;5.03;4.60;;;19.10;57.00;;;;;;2097217;28;20013;-70
2023/06/14 00:09:17;;;;;;;6.75;4.80;;;19.10;57.00;;;;;;2097653;28;20020;-70
2023/06/14 00:10:17;;;;;;;5.20;4.70;;;19.10;57.50;;;;;;2096810;28;20445;-70
2023/06/14 00:11:18;;;;;;;5.72;5.00;;;19.20;57.10;;;;;;2099499;28;20082;-70
2023/06/14 00:12:19;;;;;;;6.43;4.43;;;19.20;57.10;;;;;;2098282;28;20074;-70
2023/06/14 00:13:20;;;;;;;6.75;5.75;;;19.20;57.00;;;;;;2099260;28;20024;-70
2023/06/14 00:14:20;;;;;;;6.07;4.30;;;19.10;57.10;;;;;;2100419;28;20020;-70
2023/06/14 00:15:21;;;;;;;6.50;4.80;;;19.10;57.00;;;;;;2100159;28;20032;-70
2023/06/14 00:16:22;;;;;;;5.47;4.60;;;19.10;57.10;;;;;;2099956;28;20031;-70
2023/06/14 00:17:23;;;;;;;5.65;4.85;;;19.10;57.10;;;;;;2098463;28;20040;-70
2023/06/14 00:18:24;;;;;;;5.13;4.63;;;19.20;57.10;;;;;;2098278;28;20024;-70
2023/06/14 00:19:26;;;;;;;5.07;4.45;;;19.20;57.00;;;;;;2091104;28;20030;-70
2023/06/14 00:20:28;;;;;;;7.63;4.53;;;19.10;57.00;;;;;;2091615;28;20031;-70
2023/06/14 00:21:30;;;;;;;8.38;4.45;;;19.10;57.10;;;;;;2097692;28;20036;-70
2023/06/14 00:22:31;;;;;;;6.38;5.00;;;19.10;57.10;;;;;;2097910;28;20040;-70
2023/06/14 00:23:32;;;;;;;5.07;4.47;;;19.20;57.00;;;;;;2099705;28;20012;-70
2023/06/14 00:24:32;;;;;;;5.30;4.30;;;19.10;56.80;;;;;;2097840;28;20048;-70
2023/06/14 00:25:33;;;;;;;4.70;4.30;;;19.10;56.80;;;;;;2099263;28;20489;-70
2023/06/14 00:26:33;;;;;;;5.10;4.60;;;19.10;56.80;;;;;;2098969;28;20048;-70
2023/06/14 00:27:34;;;;;;;7.50;4.10;;;19.10;56.90;;;;;;2097987;28;20021;-70
2023/06/14 00:28:34;;;;;;;4.88;4.40;;;19.10;56.90;;;;;;2098922;28;20048;-70
2023/06/14 00:29:35;;;;;;;6.03;4.22;;;19.10;56.90;;;;;;2097283;28;20024;-70
2023/06/14 00:30:35;;;;;;;4.72;4.20;;;19.10;56.80;;;;;;2099090;28;20024;-70
2023/06/14 00:31:36;;;;;;;6.30;4.38;;;19.10;56.70;;;;;;2098129;28;20479;-70
2023/06/14 00:32:36;;;;;;;7.40;4.35;;;19.20;56.50;;;;;;2098061;28;20028;-70
2023/06/14 00:33:37;;;;;;;6.82;4.15;;;19.10;56.70;;;;;;2098776;28;20069;-70
2023/06/14 00:34:37;;;;;;;7.38;4.28;;;19.10;56.30;;;;;;2098658;28;20061;-70
2023/06/14 00:35:38;;;;;;;6.32;4.43;;;19.10;56.20;;;;;;2099303;28;20024;-70
2023/06/14 00:36:38;;;;;;;4.53;4.05;;;19.10;56.10;;;;;;2098747;28;20082;-70
2023/06/14 00:37:39;;;;;;;6.45;4.25;;;19.20;56.00;;;;;;2098086;28;20488;-70
2023/06/14 00:38:40;;;;;;;5.90;4.20;;;19.20;55.90;;;;;;2097982;28;20020;-70
2023/06/14 00:39:40;;;;;;;4.38;3.95;;;19.20;55.80;;;;;;2097179;28;20071;-70
2023/06/14 00:40:42;;;;;;;4.45;4.05;;;19.20;55.70;;;;;;2098008;28;20281;-70
2023/06/14 00:41:42;;;;;;;4.97;3.75;;;19.20;55.80;;;;;;2098576;28;20115;-70
2023/06/14 00:42:43;;;;;;;4.05;3.65;;;19.20;55.90;;;;;;2098198;28;20039;-70
2023/06/14 00:43:43;;;;;;;5.60;4.30;;;19.20;55.80;;;;;;2099623;28;20097;-70
2023/06/14 00:44:44;;;;;;;4.57;3.78;;;19.20;55.80;;;;;;2100481;28;20023;-70
2023/06/14 00:45:44;;;;;;;4.05;3.63;;;19.20;55.90;;;;;;2101024;28;20020;-70
2023/06/14 00:46:46;;;;;;;4.70;4.03;;;19.20;55.90;;;;;;2099315;28;20472;-70
2023/06/14 00:47:48;;;;;;;4.78;3.63;;;19.20;55.80;;;;;;2099061;28;20028;-70
2023/06/14 00:48:50;;;;;;;8.27;3.72;;;19.20;55.50;;;;;;2099263;28;20449;-70
2023/06/14 00:49:52;;;;;;;4.97;3.40;;;19.10;55.30;;;;;;2099829;28;20419;-70
2023/06/14 00:50:53;;;;;;;5.20;3.95;;;19.20;55.50;;;;;;2098292;28;20035;-70
2023/06/14 00:51:53;;;;;;;5.57;3.78;;;19.20;55.40;;;;;;2098547;28;20103;-70
2023/06/14 00:52:54;;;;;;;5.70;3.92;;;19.10;55.10;;;;;;2099888;28;20024;-70
2023/06/14 00:53:54;;;;;;;3.80;3.47;;;19.10;55.10;;;;;;2099611;28;20464;-70
2023/06/14 00:54:55;;;;;;;5.93;4.05;;;19.10;55.20;;;;;;2099721;28;20056;-70
2023/06/14 00:55:56;;;;;;;7.07;4.43;;;19.20;55.20;;;;;;2096873;28;20089;-70
2023/06/14 00:56:57;;;;;;;5.28;3.70;;;19.10;55.20;;;;;;2098507;28;20020;-70
2023/06/14 00:57:57;;;;;;;5.50;4.07;;;19.20;55.20;;;;;;2098402;28;20033;-70
2023/06/14 00:58:58;;;;;;;5.28;3.70;;;19.10;55.10;;;;;;2097815;28;20127;-70
2023/06/14 00:59:58;;;;;;;5.55;3.42;;;19.10;55.10;;;;;;2095034;28;20604;-70
2023/06/14 01:00:59;;;;;;;4.25;3.67;;;19.20;55.00;;;;;;2097158;28;20492;-70
2023/06/14 01:01:59;;;;;;;5.00;3.33;;;19.10;55.10;;;;;;2098069;28;20028;-70
2023/06/14 01:03:01;;;;;;;6.72;3.65;;;19.20;55.10;;;;;;2099745;28;20093;-70
2023/06/14 01:04:03;;;;;;;5.90;3.72;;;19.20;55.10;;;;;;2098707;28;20473;-70
2023/06/14 01:05:06;;;;;;;4.97;3.83;;;19.10;54.90;;;;;;2099281;28;20153;-70
2023/06/14 01:06:26;;;;;;;5.03;3.78;;;19.10;54.90;;;;;;2097281;28;20028;-70
2023/06/14 01:08:07;;;;;;;3.80;3.40;;;19.10;55.00;;;;;;2097918;28;20127;-70
2023/06/14 01:09:27;;;;;;;5.85;4.20;;;19.10;55.10;;;;;;2097484;28;20040;-70
2023/06/14 01:10:35;;;;;;;5.18;3.30;;;19.10;55.10;;;;;;2096646;28;20025;-70
2023/06/14 01:12:01;;;;;;;4.43;3.50;;;19.00;55.00;;;;;;2099644;28;20483;-70
2023/06/14 01:13:10;;;;;;;7.03;3.95;;;19.00;54.80;;;;;;2098051;28;20060;-70
2023/06/14 01:14:13;;;;;;;4.13;3.72;;;19.00;54.90;;;;;;2099403;28;20126;-70
2023/06/14 01:15:14;;;;;;;6.40;3.50;;;19.00;55.00;;;;;;2100966;28;20531;-70
2023/06/14 01:16:15;;;;;;;3.92;3.45;;;19.10;54.90;;;;;;2097474;28;20052;-70
2023/06/14 01:17:16;;;;;;;4.10;3.55;;;19.00;54.90;;;;;;2099281;28;20024;-70
2023/06/14 01:18:17;;;;;;;5.78;3.63;;;19.10;54.80;;;;;;2098788;28;20364;-70
2023/06/14 01:19:19;;;;;;;4.63;3.30;;;19.00;55.30;;;;;;2098864;28;20088;-70
2023/06/14 01:20:21;;;;;;;4.00;3.53;;;19.10;54.80;;;;;;2097743;28;20384;-70
2023/06/14 01:21:25;;;;;;;5.03;3.83;;;19.00;55.00;;;;;;2100044;28;20127;-70
2023/06/14 01:22:27;;;;;;;6.25;3.50;;;19.10;55.20;;;;;;2099851;28;20024;-70
2023/06/14 01:23:32;;;;;;;4.78;3.13;;;19.00;55.00;;;;;;2101592;28;20054;-70
2023/06/14 01:24:34;;;;;;;4.03;3.30;;;19.00;55.20;;;;;;2100456;28;20365;-70
2023/06/14 01:25:37;;;;;;;7.03;3.40;;;19.00;55.10;;;;;;2100196;28;20016;-70
2023/06/14 01:26:38;;;;;;;4.57;3.75;;;19.00;55.10;;;;;;2099836;28;20053;-70
2023/06/14 01:27:39;;;;;;;7.32;3.60;;;19.00;55.10;;;;;;2099891;28;20023;-70
2023/06/14 01:28:39;;;;;;;5.63;4.18;;;19.00;55.10;;;;;;2101096;28;20021;-70
2023/06/14 01:29:45;;;;;;;3.85;3.55;;;19.00;55.10;;;;;;2099505;28;20027;-70
2023/06/14 01:30:53;;;;;;;3.45;3.10;;;19.00;55.30;;;;;;2099855;28;20462;-70
2023/06/14 01:31:54;;;;;;;6.57;3.53;;;18.90;55.90;;;;;;2101800;28;20027;-70
2023/06/14 01:32:56;;;;;;;3.97;3.28;;;18.90;55.20;;;;;;2100212;28;20063;-70
2023/06/14 01:33:56;;;;;;;4.00;3.25;;;18.90;55.10;;;;;;2098737;28;20059;-70
2023/06/14 01:34:57;;;;;;;3.88;3.47;;;18.90;55.10;;;;;;2101373;28;20032;-70
2023/06/14 01:35:58;;;;;;;5.70;3.33;;;18.90;55.20;;;;;;2098934;28;20028;-70
2023/06/14 01:37:00;;;;;;;5.57;3.33;;;18.90;55.30;;;;;;2100345;28;20898;-70
2023/06/14 01:38:03;;;;;;;4.78;3.30;;;18.90;55.30;;;;;;2099654;28;20027;-70
2023/06/14 01:39:06;;;;;;;3.90;3.55;;;18.90;55.30;;;;;;2099977;28;20036;-70
2023/06/14 01:40:08;;;;;;;3.78;3.35;;;18.90;55.10;;;;;;2098534;28;20464;-70
2023/06/14 01:41:09;;;;;;;4.32;3.60;;;18.80;55.10;;;;;;2100965;28;20032;-70
2023/06/14 01:42:12;;;;;;;7.32;4.28;;;18.90;55.20;;;;;;2099965;28;20035;-70
2023/06/14 01:43:16;;;;;;;5.80;3.60;;;18.80;55.10;;;;;;2101967;28;20127;-70
2023/06/14 01:44:18;;;;;;;4.18;3.30;;;18.80;55.10;;;;;;2099603;28;20035;-70
2023/06/14 01:45:19;;;;;;;5.85;3.50;;;18.80;55.20;;;;;;2101567;28;20012;-70
2023/06/14 01:46:20;;;;;;;5.45;3.58;;;18.80;55.30;;;;;;2100337;28;20100;-70
2023/06/14 01:47:21;;;;;;;5.57;3.70;;;18.80;55.30;;;;;;2100495;28;20031;-70
2023/06/14 01:48:22;;;;;;;5.38;3.38;;;18.70;55.40;;;;;;2098849;28;20365;-70
2023/06/14 01:49:23;;;;;;;7.57;3.38;;;18.80;55.40;;;;;;2099729;28;20032;-70
2023/06/14 01:50:23;;;;;;;5.93;3.50;;;18.70;55.30;;;;;;2098664;28;20722;-70
2023/06/14 01:51:24;;;;;;;9.25;3.50;;;18.70;55.30;;;;;;2098147;28;20055;-70
2023/06/14 01:52:24;;;;;;;3.75;3.10;;;18.80;55.40;;;;;;2100189;28;20019;-70
2023/06/14 01:53:25;;;;;;;5.32;3.45;;;18.70;55.30;;;;;;2100047;28;20042;-70
2023/06/14 01:54:25;;;;;;;5.20;3.58;;;18.70;55.40;;;;;;2101478;28;20031;-70
2023/06/14 01:55:27;;;;;;;9.45;3.55;;;18.70;55.30;;;;;;2098909;28;20028;-70
2023/06/14 01:56:28;;;;;;;4.32;3.13;;;18.70;55.60;;;;;;2100808;28;20012;-70
2023/06/14 01:57:29;;;;;;;4.72;3.45;;;18.70;55.60;;;;;;2102475;28;20028;-70
2023/06/14 01:58:29;;;;;;;5.93;3.42;;;18.70;55.60;;;;;;2100478;28;20357;-70
2023/06/14 01:59:31;;;;;;;3.78;3.28;;;18.70;55.30;;;;;;2099470;28;20145;-70
2023/06/14 02:00:31;;;;;;;4.18;3.58;;;18.70;55.40;;;;;;2100721;28;20028;-70
2023/06/14 02:01:34;;;;;;;4.25;3.30;;;18.70;55.40;;;;;;2099318;28;20034;-70
2023/06/14 02:02:34;;;;;;;4.82;3.38;;;18.60;55.30;;;;;;2100259;28;20027;-70
2023/06/14 02:03:37;;;;;;;3.53;3.20;;;18.60;55.40;;;;;;2098949;28;20020;-70
2023/06/14 02:04:38;;;;;;;7.65;3.83;;;18.70;55.60;;;;;;2098323;28;20021;-70
2023/06/14 02:05:39;;;;;;;6.03;3.78;;;18.60;55.40;;;;;;2099131;28;20035;-70
2023/06/14 02:06:40;;;;;;;3.90;3.33;;;18.60;55.40;;;;;;2099634;28;20089;-70
2023/06/14 02:07:40;;;;;;;5.43;3.67;;;18.60;55.40;;;;;;2101439;28;20046;-70
2023/06/14 02:08:42;;;;;;;5.10;3.47;;;18.60;55.40;;;;;;2102063;28;20546;-70
2023/06/14 02:09:42;;;;;;;4.55;3.58;;;18.60;55.40;;;;;;2100371;28;20166;-70
2023/06/14 02:10:43;;;;;;;5.45;3.33;;;18.60;55.50;;;;;;2099144;28;20024;-70
2023/06/14 02:11:44;;;;;;;3.55;3.25;;;18.50;55.50;;;;;;2097892;28;20131;-70
2023/06/14 02:12:45;;;;;;;3.92;3.53;;;18.60;55.60;;;;;;2098282;28;20024;-70
2023/06/14 02:13:46;;;;;;;4.32;3.13;;;18.50;55.60;;;;;;2101517;28;20678;-70
2023/06/14 02:14:46;;;;;;;3.03;2.75;;;18.50;55.70;;;;;;2099261;28;20099;-70
2023/06/14 02:15:50;;;;;;;3.90;3.13;;;18.50;55.80;;;;;;2099096;28;20062;-70
2023/06/14 02:16:52;;;;;;;4.38;2.90;;;18.50;55.60;;;;;;2104008;28;20081;-69
2023/06/14 02:17:53;;;;;;;5.57;3.17;;;18.50;55.70;;;;;;2101875;28;20074;-70
2023/06/14 02:18:54;;;;;;;3.30;3.00;;;18.50;55.70;;;;;;2100152;28;20354;-70
2023/06/14 02:19:57;;;;;;;4.93;3.42;;;18.50;55.60;;;;;;2099083;28;20042;-70
2023/06/14 02:20:57;;;;;;;3.55;3.25;;;18.40;55.50;;;;;;2099757;28;20040;-70
2023/06/14 02:21:58;;;;;;;5.57;3.25;;;18.40;55.60;;;;;;2099594;28;20111;-70
2023/06/14 02:22:58;;;;;;;5.15;3.80;;;18.40;55.50;;;;;;2099495;28;20024;-70
2023/06/14 02:23:59;;;;;;;6.03;3.30;;;18.40;55.60;;;;;;2098545;28;20024;-70
2023/06/14 02:24:59;;;;;;;6.78;3.10;;;18.40;55.60;;;;;;2098624;28;20031;-70
2023/06/14 02:26:00;;;;;;;4.35;3.20;;;18.40;55.60;;;;;;2101305;28;20069;-70
2023/06/14 02:27:01;;;;;;;4.45;3.20;;;18.40;55.60;;;;;;2098090;28;20040;-70
2023/06/14 02:28:02;;;;;;;6.78;3.45;;;18.40;55.70;;;;;;2099729;28;20110;-70
2023/06/14 02:29:03;;;;;;;5.65;3.17;;;18.30;55.60;;;;;;2098754;28;20024;-70
2023/06/14 02:30:05;;;;;;;7.50;3.55;;;18.30;55.80;;;;;;2097543;28;20395;-70
2023/06/14 02:31:05;;;;;;;3.42;2.80;;;18.40;55.80;;;;;;2100002;28;20130;-70
2023/06/14 02:32:09;;;;;;;4.30;3.05;;;18.30;55.90;;;;;;2097903;28;20013;-70
2023/06/14 02:33:12;;;;;;;3.80;3.03;;;18.30;55.90;;;;;;2099661;28;20032;-70
2023/06/14 02:34:13;;;;;;;5.40;2.90;;;18.30;55.90;;;;;;2099720;28;20446;-70
2023/06/14 02:35:14;;;;;;;6.28;3.05;;;18.30;55.90;;;;;;2100785;28;20031;-70
2023/06/14 02:36:15;;;;;;;6.35;3.25;;;18.30;55.80;;;;;;2100211;28;20486;-70
2023/06/14 02:37:16;;;;;;;5.90;3.42;;;18.30;55.90;;;;;;2098799;28;20036;-70
2023/06/14 02:38:17;;;;;;;2.85;2.53;;;18.20;55.80;;;;;;2099247;28;20802;-70
2023/06/14 02:39:20;;;;;;;3.95;3.42;;;18.20;55.90;;;;;;2101142;28;20028;-70
2023/06/14 02:40:21;;;;;;;4.22;3.20;;;18.20;56.00;;;;;;2098458;28;20414;-70
2023/06/14 02:41:21;;;;;;;4.63;2.60;;;18.20;56.00;;;;;;2098457;28;20024;-70
2023/06/14 02:42:22;;;;;;;4.38;2.70;;;18.20;56.00;;;;;;2099490;28;20020;-70
2023/06/14 02:43:22;;;;;;;6.47;3.30;;;18.20;56.10;;;;;;2099164;28;20031;-70
2023/06/14 02:44:27;;;;;;;3.97;3.28;;;18.20;56.00;;;;;;2099034;28;20028;-70
2023/06/14 02:45:27;;;;;;;3.28;2.97;;;18.20;56.00;;;;;;2099325;28;20029;-70
2023/06/14 02:46:28;;;;;;;4.57;2.80;;;18.10;56.00;;;;;;2099588;28;20052;-70
2023/06/14 02:47:29;;;;;;;4.55;3.22;;;18.10;56.60;;;;;;2102149;28;20028;-70
2023/06/14 02:48:30;;;;;;;6.43;3.15;;;18.10;56.00;;;;;;2099463;28;20440;-70
2023/06/14 02:49:31;;;;;;;5.72;3.40;;;18.10;56.10;;;;;;2098534;28;20047;-70
2023/06/14 02:50:32;;;;;;;3.78;3.08;;;18.10;56.00;;;;;;2098319;28;20118;-70
2023/06/14 02:51:32;;;;;;;11.88;3.17;;;18.10;56.20;;;;;;2100322;28;20166;-70
2023/06/14 02:52:33;;;;;;;3.58;2.88;;;18.10;56.10;;;;;;2099072;28;20166;-70
2023/06/14 02:53:35;;;;;;;2.97;2.50;;;18.10;56.20;;;;;;2099847;28;20013;-70
2023/06/14 02:54:35;;;;;;;3.50;3.20;;;18.10;56.20;;;;;;2098757;28;20028;-70
2023/06/14 02:55:39;;;;;;;5.82;2.90;;;18.10;56.10;;;;;;2101558;28;20020;-70
2023/06/14 02:56:40;;;;;;;5.75;3.10;;;18.00;56.10;;;;;;2099938;28;20045;-70
2023/06/14 02:57:41;;;;;;;2.75;2.53;;;18.00;56.20;;;;;;2098790;28;20138;-70
2023/06/14 02:58:41;;;;;;;4.32;3.10;;;18.00;56.30;;;;;;2099186;28;20029;-70
2023/06/14 02:59:42;;;;;;;5.25;3.13;;;18.10;56.20;;;;;;2099772;28;20777;-70
2023/06/14 03:00:43;;;;;;;7.13;3.15;;;18.10;56.20;;;;;;2099938;28;20107;-70
2023/06/14 03:01:43;;;;;;;3.42;2.90;;;18.10;56.30;;;;;;2098846;28;20059;-70
2023/06/14 03:02:44;;;;;;;8.05;3.40;;;18.10;56.20;;;;;;2099077;28;20111;-70
2023/06/14 03:03:44;;;;;;;4.57;2.97;;;18.10;56.30;;;;;;2099174;28;20020;-70
2023/06/14 03:04:46;;;;;;;3.72;2.97;;;18.00;56.30;;;;;;2098386;28;20083;-70
2023/06/14 03:05:49;;;;;;;4.70;2.88;;;18.00;56.30;;;;;;2099909;28;20031;-70
2023/06/14 03:06:50;;;;;;;4.68;3.00;;;18.00;56.20;;;;;;2100746;28;20016;-70
2023/06/14 03:07:50;;;;;;;4.25;3.08;;;18.00;56.30;;;;;;2099359;28;20104;-70
2023/06/14 03:08:51;;;;;;;5.40;3.13;;;18.00;56.30;;;;;;2099299;28;20032;-70
2023/06/14 03:09:52;;;;;;;6.80;3.25;;;18.00;56.30;;;;;;2097160;28;20016;-70
2023/06/14 03:10:53;;;;;;;4.80;2.90;;;18.00;56.40;;;;;;2099480;28;20079;-70
2023/06/14 03:11:53;;;;;;;6.57;2.72;;;18.00;56.40;;;;;;2099236;28;20052;-70
2023/06/14 03:12:54;;;;;;;6.65;3.05;;;18.00;56.40;;;;;;2098771;28;20035;-70
2023/06/14 03:13:56;;;;;;;4.60;3.00;;;18.00;56.40;;;;;;2098512;28;20047;-70
2023/06/14 03:14:56;;;;;;;3.45;2.80;;;17.90;56.40;;;;;;2099804;28;20037;-70
2023/06/14 03:15:57;;;;;;;3.55;3.13;;;17.90;56.60;;;;;;2098502;28;20052;-70
2023/06/14 03:16:58;;;;;;;4.35;3.00;;;17.90;56.60;;;;;;2100519;28;20040;-70
2023/06/14 03:18:01;;;;;;;4.75;3.30;;;17.90;56.50;;;;;;2099081;28;20487;-70
2023/06/14 03:19:01;;;;;;;4.53;2.90;;;17.90;56.50;;;;;;2100032;28;20037;-70
2023/06/14 03:20:03;;;;;;;5.15;3.00;;;17.90;56.50;;;;;;2098901;28;20036;-70
2023/06/14 03:21:04;;;;;;;3.13;2.83;;;17.90;56.60;;;;;;2097178;28;20028;-70
2023/06/14 03:22:07;;;;;;;4.32;2.80;;;17.90;56.60;;;;;;2098851;28;20760;-70
2023/06/14 03:23:08;;;;;;;7.07;3.20;;;17.90;56.80;;;;;;2100667;28;20044;-70
2023/06/14 03:24:09;;;;;;;5.60;2.67;;;17.90;56.80;;;;;;2098018;28;20024;-70
2023/06/14 03:25:10;;;;;;;3.72;2.70;;;17.90;56.80;;;;;;2099562;28;20048;-70
2023/06/14 03:26:13;;;;;;;3.55;2.58;;;17.90;56.80;;;;;;2099036;28;20072;-70
2023/06/14 03:27:14;;;;;;;3.45;2.50;;;17.80;56.80;;;;;;2100773;28;20056;-69
2023/06/14 03:28:15;;;;;;;3.58;2.95;;;17.80;56.80;;;;;;2099544;28;20503;-69
2023/06/14 03:29:16;;;;;;;4.32;3.22;;;17.80;57.00;;;;;;2098551;28;20051;-70
2023/06/14 03:30:16;;;;;;;4.07;2.45;;;17.80;57.00;;;;;;2098795;28;20028;-70
2023/06/14 03:31:17;;;;;;;5.80;3.45;;;17.80;56.90;;;;;;2099624;28;20020;-70
2023/06/14 03:32:17;;;;;;;6.57;3.47;;;17.80;57.00;;;;;;2098497;28;20494;-70
2023/06/14 03:33:18;;;;;;;3.88;2.95;;;17.80;57.10;;;;;;2100409;28;20047;-70
2023/06/14 03:34:19;;;;;;;3.33;2.92;;;17.80;57.00;;;;;;2099588;28;20027;-70
2023/06/14 03:35:19;;;;;;;6.20;3.35;;;17.80;57.00;;;;;;2099253;28;20426;-70
2023/06/14 03:36:20;;;;;;;5.10;3.17;;;17.70;57.10;;;;;;2099574;28;20545;-70
2023/06/14 03:37:20;;;;;;;4.43;2.67;;;17.80;57.10;;;;;;2098914;28;20067;-70
2023/06/14 03:38:21;;;;;;;3.90;2.83;;;17.70;57.20;;;;;;2098399;28;20468;-70
2023/06/14 03:39:22;;;;;;;6.95;3.20;;;17.70;57.30;;;;;;2099213;28;20029;-70
2023/06/14 03:40:25;;;;;;;4.15;2.90;;;17.70;57.20;;;;;;2097731;28;20403;-70
2023/06/14 03:41:26;;;;;;;6.15;2.97;;;17.70;57.20;;;;;;2098947;28;20111;-70
2023/06/14 03:42:26;;;;;;;6.03;3.05;;;17.70;57.30;;;;;;2098955;28;20036;-70
2023/06/14 03:43:27;;;;;;;3.90;3.17;;;17.70;57.40;;;;;;2098150;28;20072;-70
2023/06/14 03:44:28;;;;;;;4.55;3.40;;;17.70;57.20;;;;;;2097496;28;20077;-70
2023/06/14 03:45:28;;;;;;;8.65;2.95;;;17.60;57.40;;;;;;2095602;28;20016;-70
2023/06/14 03:46:29;;;;;;;6.03;3.20;;;17.70;57.40;;;;;;2099545;28;20013;-70
2023/06/14 03:47:29;;;;;;;4.60;3.05;;;17.70;57.30;;;;;;2103510;28;20054;-70
2023/06/14 03:48:30;;;;;;;2.92;2.60;;;17.70;57.40;;;;;;2101754;28;20024;-70
2023/06/14 03:49:30;;;;;;;5.47;3.33;;;17.70;57.50;;;;;;2099535;28;20028;-70
2023/06/14 03:50:32;;;;;;;6.68;2.80;;;17.70;57.40;;;;;;2097884;28;20058;-70
2023/06/14 03:51:35;;;;;;;5.15;2.92;;;17.70;57.50;;;;;;2097186;28;20836;-70
2023/06/14 03:52:36;;;;;;;2.83;2.50;;;17.70;57.60;;;;;;2099623;28;20028;-70
2023/06/14 03:53:37;;;;;;;5.88;2.88;;;17.70;57.70;;;;;;2099665;28;20099;-70
2023/06/14 03:54:37;;;;;;;4.32;3.00;;;17.70;57.70;;;;;;2099278;28;20129;-70
2023/06/14 03:55:38;;;;;;;6.38;2.80;;;17.70;57.60;;;;;;2098289;28;20103;-70
2023/06/14 03:56:38;;;;;;;8.55;2.80;;;17.70;57.50;;;;;;2097991;28;20031;-70
2023/06/14 03:57:39;;;;;;;3.38;2.80;;;17.70;57.60;;;;;;2099530;28;20060;-70
2023/06/14 03:58:40;;;;;;;3.78;2.83;;;17.80;57.60;;;;;;2099235;28;20021;-70
2023/06/14 03:59:41;;;;;;;5.30;2.67;;;17.80;57.40;;;;;;2099952;28;20906;-70
2023/06/14 04:00:41;;;;;;;4.22;3.20;;;17.90;57.50;;;;;;2096275;28;20425;-70
2023/06/14 04:01:44;;;;;;;5.72;2.67;;;17.90;57.40;;;;;;2099805;28;20102;-70
2023/06/14 04:02:45;;;;;;;3.78;2.38;;;17.90;57.20;;;;;;2098612;28;20206;-70
2023/06/14 04:03:46;;;;;;;3.28;2.72;;;18.00;57.40;;;;;;2100110;28;20013;-70
2023/06/14 04:04:48;;;;;;;6.78;2.90;;;18.10;57.30;;;;;;2098556;28;20084;-70
2023/06/14 04:05:49;;;;;;;3.42;2.50;;;18.20;57.00;;;;;;2098908;28;20023;-70
2023/06/14 04:06:49;;;;;;;3.63;2.63;;;18.30;56.60;;;;;;2102296;28;20028;-70
2023/06/14 04:07:50;;;;;;;4.13;2.40;;;18.40;56.60;;;;;;2101068;28;20017;-70
2023/06/14 04:08:52;;;;;;;5.10;3.13;;;18.50;56.40;;;;;;2097412;28;20016;-70
2023/06/14 04:09:52;;;;;;;3.85;2.55;;;18.70;56.20;;;;;;2097117;28;20032;-70
2023/06/14 04:10:53;;;;;;;4.47;2.30;;;18.90;55.90;;;;;;2099775;28;20035;-70
2023/06/14 04:11:53;;;;;;;5.22;2.83;;;19.10;55.40;;;;;;2098827;28;20468;-70
2023/06/14 04:12:54;;;;;;;4.53;2.53;;;19.30;54.70;;;;;;2098481;28;20103;-70
2023/06/14 04:13:56;;;;;;;5.00;2.83;;;19.50;54.30;;;;;;2102954;28;20728;-70
2023/06/14 04:14:56;;;;;;;3.40;2.78;;;19.70;53.80;;;;;;2101606;28;20718;-70
2023/06/14 04:15:57;;;;;;;2.45;2.20;;;19.90;53.30;;;;;;2098293;28;20449;-70
2023/06/14 04:16:57;;;;;;;2.60;2.40;;;20.10;52.90;;;;;;2098709;28;20029;-70
2023/06/14 04:17:58;;;;;;;2.75;2.55;;;20.20;52.30;;;;;;2096015;28;20063;-70
2023/06/14 04:18:59;;;;;;;4.80;2.50;;;20.30;52.20;;;;;;2099155;28;20074;-70
2023/06/14 04:20:00;;;;;;;3.25;2.70;;;20.50;51.90;;;;;;2098355;28;20039;-70
2023/06/14 04:21:01;;;;;;;2.88;2.47;;;20.60;51.50;;;;;;2098238;28;20078;-70
2023/06/14 04:22:02;;;;;;;4.22;2.95;;;20.70;51.30;;;;;;2099419;28;20537;-70
2023/06/14 04:23:17;;;;;;;4.00;2.35;;;20.90;51.00;;;;;;2100394;28;20056;-70
2023/06/14 04:24:18;;;;;;;3.88;2.45;;;21.00;50.70;;;;;;2098706;28;20028;-70
2023/06/14 04:25:19;;;;;;;7.70;3.35;;;21.10;50.50;;;;;;2097581;28;20044;-70
2023/06/14 04:26:20;;;;;;;3.97;2.92;;;21.10;50.50;;;;;;2097745;28;20035;-70
2023/06/14 04:27:24;;;;;;;2.90;2.60;;;21.10;50.80;;;;;;2099807;28;20013;-70
2023/06/14 04:28:26;;;;;;;6.15;2.92;;;21.10;50.80;;;;;;2097873;28;20019;-70
2023/06/14 04:29:29;;;;;;;4.22;2.28;;;21.10;51.20;;;;;;2097639;28;20048;-70
2023/06/14 04:30:31;;;;;;;4.97;2.42;;;21.00;51.30;;;;;;2099618;28;20116;-70
2023/06/14 04:31:37;;;;;;;5.18;2.58;;;20.90;51.30;;;;;;2098623;28;20025;-70
2023/06/14 04:32:38;;;;;;;7.00;2.65;;;20.80;51.40;;;;;;2098448;28;20172;-70
2023/06/14 04:33:43;;;;;;;3.00;2.50;;;20.70;51.60;;;;;;2100744;28;20460;-70
2023/06/14 04:34:43;;;;;;;3.90;2.70;;;20.70;51.90;;;;;;2099882;28;20486;-70
2023/06/14 04:35:47;;;;;;;4.80;2.47;;;20.60;52.10;;;;;;2098950;28;20039;-70
2023/06/14 04:36:53;;;;;;;6.60;2.75;;;20.50;52.30;;;;;;2097754;28;20028;-70
2023/06/14 04:37:53;;;;;;;12.88;2.60;;;20.50;52.50;;;;;;2098628;28;20043;-70
2023/06/14 04:38:54;;;;;;;4.97;2.72;;;20.50;52.60;;;;;;2100185;28;20035;-70
2023/06/14 04:39:55;;;;;;;2.92;1.67;;;20.50;52.80;;;;;;2097789;28;20008;-70
2023/06/14 04:40:56;;;;;;;5.63;2.28;;;20.50;52.80;;;;;;2098664;28;20032;-70
2023/06/14 04:42:00;;;;;;;4.28;2.50;;;20.50;53.00;;;;;;2099017;28;20021;-70
2023/06/14 04:43:01;;;;;;;3.63;2.90;;;20.50;52.80;;;;;;2097786;28;20477;-70
2023/06/14 04:44:02;;;;;;;6.97;2.55;;;20.50;52.90;;;;;;2099268;28;20430;-70
2023/06/14 04:45:02;;;;;;;3.47;2.42;;;20.50;53.00;;;;;;2100336;28;20024;-70
2023/06/14 04:46:05;;;;;;;2.65;2.40;;;20.50;52.90;;;;;;2098536;28;20106;-70
2023/06/14 04:47:06;;;;;;;5.95;2.45;;;20.50;53.20;;;;;;2098892;28;20020;-71
2023/06/14 04:48:07;;;;;;;6.05;2.53;;;20.60;53.50;;;;;;2098899;28;20507;-71
2023/06/14 04:49:08;;;;;;;6.85;2.25;;;20.60;52.90;;;;;;2098373;28;20520;-70
2023/06/14 04:50:10;;;;;;;3.65;2.35;;;20.60;52.80;;;;;;2097235;28;20088;-70
2023/06/14 04:51:10;;;;;;;4.32;2.50;;;20.60;52.80;;;;;;2099449;28;20027;-70
2023/06/14 04:52:12;;;;;;;4.28;2.45;;;20.70;52.70;;;;;;2096710;28;20039;-70
2023/06/14 04:53:13;;;;;;;7.45;2.45;;;20.70;53.10;;;;;;2097525;28;20044;-71
2023/06/14 04:54:14;;;;;;;4.10;2.80;;;20.70;52.80;;;;;;2098797;28;20048;-71
2023/06/14 04:55:15;;;;;;;4.65;3.08;;;20.70;52.60;;;;;;2098727;28;20087;-71
2023/06/14 04:56:16;;;;;;;3.25;2.30;;;20.80;52.50;;;;;;2099713;28;20035;-71
2023/06/14 04:57:17;;;;;;;4.82;2.55;;;20.80;52.40;;;;;;2101576;28;20037;-71
2023/06/14 04:58:17;;;;;;;5.35;2.70;;;20.80;52.60;;;;;;2099469;28;20042;-71
2023/06/14 04:59:18;;;;;;;4.90;2.40;;;20.80;52.90;;;;;;2102382;28;20487;-71
2023/06/14 05:00:20;;;;;;;5.57;2.75;;;20.90;52.70;;;;;;2099897;28;20024;-71
2023/06/14 05:01:22;;;;;;;5.30;2.70;;;20.90;52.70;;;;;;2100195;28;20073;-71
2023/06/14 05:02:24;;;;;;;3.00;2.60;;;20.90;52.40;;;;;;2099427;28;20069;-70
2023/06/14 05:03:26;;;;;;;3.80;2.78;;;21.00;52.30;;;;;;2100129;28;20023;-70
2023/06/14 05:04:27;;;;;;;2.50;2.10;;;21.00;52.50;;;;;;2099904;28;20461;-70
2023/06/14 05:05:28;;;;;;;12.90;3.15;;;21.00;52.30;;;;;;2100312;28;20066;-70
2023/06/14 05:06:30;;;;;;;5.07;2.42;;;21.00;52.30;;;;;;2099340;28;20024;-70
2023/06/14 05:07:30;;;;;;;5.38;2.55;;;21.10;52.50;;;;;;2098848;28;20024;-70
2023/06/14 05:08:31;;;;;;;2.85;2.40;;;21.10;52.50;;;;;;2100091;28;20032;-70
2023/06/14 05:09:31;;;;;;;4.15;2.33;;;21.20;52.80;;;;;;2100412;28;20027;-71
2023/06/14 05:10:34;;;;;;;6.90;2.63;;;21.20;52.80;;;;;;2098252;28;20024;-71
2023/06/14 05:11:35;;;;;;;4.65;2.53;;;21.30;52.70;;;;;;2099124;28;20013;-71
2023/06/14 05:12:35;;;;;;;2.67;2.30;;;21.30;52.70;;;;;;2101826;28;20788;-71
2023/06/14 05:13:39;;;;;;;5.72;2.55;;;21.40;52.40;;;;;;2100596;28;20059;-71
2023/06/14 05:14:40;;;;;;;2.63;2.28;;;21.50;52.10;;;;;;2100569;28;20048;-71
2023/06/14 05:15:40;;;;;;;3.00;2.45;;;21.50;52.20;;;;;;2102197;28;20087;-70
2023/06/14 05:16:41;;;;;;;3.95;2.55;;;21.50;52.00;;;;;;2101086;28;20029;-70
2023/06/14 05:17:42;;;;;;;2.65;2.17;;;21.60;51.70;;;;;;2099295;28;20025;-70
2023/06/14 05:18:43;;;;;;;2.60;2.33;;;21.60;52.10;;;;;;2100589;28;20016;-70
2023/06/14 05:19:44;;;;;;;7.70;2.85;;;21.60;51.50;;;;;;2101812;28;20379;-70
2023/06/14 05:20:44;;;;;;;4.47;2.55;;;21.60;51.70;;;;;;2101378;28;20024;-71